sensor_id;sensor_type;location;lat;lon;timestamp;P1;durP1;ratioP1;P2;durP2;ratioP2
63046;SDS011;62025;39.238;9.126;2022-11-12T00:01:07;12.23;;;7.43;;
63046;SDS011;62025;39.238;9.126;2022-11-12T00:03:52;12.75;;;6.97;;
63046;SDS011;62025;39.238;9.126;2022-11-12T00:06:37;13.88;;;6.75;;
63046;SDS011;62025;39.238;9.126;2022-11-12T00:09:21;12.65;;;6.55;;
63046;SDS011;62025;39.238;9.126;2022-11-12T00:12:06;10.98;;;6.65;;
63046;SDS011;62025;39.238;9.126;2022-11-12T00:14:50;13.68;;;7.07;;
63046;SDS011;62025;39.238;9.126;2022-11-12T00:17:35;9.52;;;6.25;;
63046;SDS011;62025;39.238;9.126;2022-11-12T00:20:20;13.98;;;6.10;;
63046;SDS011;62025;39.238;9.126;2022-11-12T00:23:05;12.57;;;6.07;;
63046;SDS011;62025;39.238;9.126;2022-11-12T00:25:59;9.48;;;5.68;;
63046;SDS011;62025;39.238;9.126;2022-11-12T00:28:44;12.68;;;7.55;;
63046;SDS011;62025;39.238;9.126;2022-11-12T00:31:28;12.25;;;6.20;;
63046;SDS011;62025;39.238;9.126;2022-11-12T00:34:13;7.95;;;5.40;;
63046;SDS011;62025;39.238;9.126;2022-11-12T00:36:58;8.20;;;5.30;;
63046;SDS011;62025;39.238;9.126;2022-11-12T00:39:44;11.30;;;5.22;;
63046;SDS011;62025;39.238;9.126;2022-11-12T00:42:28;9.50;;;6.10;;
63046;SDS011;62025;39.238;9.126;2022-11-12T00:45:13;11.05;;;6.15;;
63046;SDS011;62025;39.238;9.126;2022-11-12T00:47:57;13.38;;;6.90;;
63046;SDS011;62025;39.238;9.126;2022-11-12T00:50:42;9.73;;;5.40;;
63046;SDS011;62025;39.238;9.126;2022-11-12T00:53:27;13.20;;;6.43;;
63046;SDS011;62025;39.238;9.126;2022-11-12T00:56:11;9.07;;;5.50;;
63046;SDS011;62025;39.238;9.126;2022-11-12T00:58:56;12.57;;;5.90;;
63046;SDS011;62025;39.238;9.126;2022-11-12T01:01:41;6.13;;;5.25;;
63046;SDS011;62025;39.238;9.126;2022-11-12T01:04:26;8.82;;;5.68;;
63046;SDS011;62025;39.238;9.126;2022-11-12T01:07:11;12.82;;;5.40;;
63046;SDS011;62025;39.238;9.126;2022-11-12T01:09:58;10.85;;;6.95;;
63046;SDS011;62025;39.238;9.126;2022-11-12T01:12:42;12.45;;;7.03;;
63046;SDS011;62025;39.238;9.126;2022-11-12T01:15:27;12.13;;;7.28;;
63046;SDS011;62025;39.238;9.126;2022-11-12T01:18:12;14.20;;;7.43;;
63046;SDS011;62025;39.238;9.126;2022-11-12T01:21:00;13.20;;;7.32;;
63046;SDS011;62025;39.238;9.126;2022-11-12T01:23:47;12.23;;;7.03;;
63046;SDS011;62025;39.238;9.126;2022-11-12T01:26:31;9.93;;;7.30;;
63046;SDS011;62025;39.238;9.126;2022-11-12T01:29:16;12.18;;;7.43;;
63046;SDS011;62025;39.238;9.126;2022-11-12T01:32:01;12.07;;;7.22;;
63046;SDS011;62025;39.238;9.126;2022-11-12T01:34:45;16.27;;;7.30;;
63046;SDS011;62025;39.238;9.126;2022-11-12T01:37:30;12.70;;;6.70;;
63046;SDS011;62025;39.238;9.126;2022-11-12T01:40:15;15.75;;;6.80;;
63046;SDS011;62025;39.238;9.126;2022-11-12T01:43:00;13.05;;;7.30;;
63046;SDS011;62025;39.238;9.126;2022-11-12T01:45:45;18.83;;;7.28;;
63046;SDS011;62025;39.238;9.126;2022-11-12T01:48:37;13.57;;;7.30;;
63046;SDS011;62025;39.238;9.126;2022-11-12T01:51:33;10.18;;;6.47;;
63046;SDS011;62025;39.238;9.126;2022-11-12T01:54:25;15.18;;;7.15;;
63046;SDS011;62025;39.238;9.126;2022-11-12T01:57:10;12.63;;;6.38;;
63046;SDS011;62025;39.238;9.126;2022-11-12T01:59:57;14.07;;;6.85;;
63046;SDS011;62025;39.238;9.126;2022-11-12T02:02:51;11.75;;;6.55;;
63046;SDS011;62025;39.238;9.126;2022-11-12T02:05:39;10.05;;;6.35;;
63046;SDS011;62025;39.238;9.126;2022-11-12T02:08:25;13.85;;;6.55;;
63046;SDS011;62025;39.238;9.126;2022-11-12T02:11:13;11.57;;;6.50;;
63046;SDS011;62025;39.238;9.126;2022-11-12T02:14:03;11.48;;;6.40;;
63046;SDS011;62025;39.238;9.126;2022-11-12T02:16:48;9.18;;;5.88;;
63046;SDS011;62025;39.238;9.126;2022-11-12T02:19:35;10.48;;;6.25;;
63046;SDS011;62025;39.238;9.126;2022-11-12T02:22:20;12.00;;;6.28;;
63046;SDS011;62025;39.238;9.126;2022-11-12T02:25:05;11.98;;;7.05;;
63046;SDS011;62025;39.238;9.126;2022-11-12T02:27:52;11.63;;;6.70;;
63046;SDS011;62025;39.238;9.126;2022-11-12T02:30:43;12.20;;;5.72;;
63046;SDS011;62025;39.238;9.126;2022-11-12T02:33:32;7.85;;;6.07;;
63046;SDS011;62025;39.238;9.126;2022-11-12T02:36:17;11.55;;;6.60;;
63046;SDS011;62025;39.238;9.126;2022-11-12T02:39:01;7.65;;;6.00;;
63046;SDS011;62025;39.238;9.126;2022-11-12T02:41:46;15.68;;;6.40;;
63046;SDS011;62025;39.238;9.126;2022-11-12T02:44:31;13.68;;;5.93;;
63046;SDS011;62025;39.238;9.126;2022-11-12T02:47:16;12.13;;;6.28;;
63046;SDS011;62025;39.238;9.126;2022-11-12T02:50:00;9.50;;;6.15;;
63046;SDS011;62025;39.238;9.126;2022-11-12T02:52:46;11.98;;;5.80;;
63046;SDS011;62025;39.238;9.126;2022-11-12T02:55:31;11.45;;;6.50;;
63046;SDS011;62025;39.238;9.126;2022-11-12T02:58:15;13.13;;;6.55;;
63046;SDS011;62025;39.238;9.126;2022-11-12T03:01:00;11.93;;;6.00;;
63046;SDS011;62025;39.238;9.126;2022-11-12T03:03:45;11.73;;;6.55;;
63046;SDS011;62025;39.238;9.126;2022-11-12T03:06:29;10.73;;;6.85;;
63046;SDS011;62025;39.238;9.126;2022-11-12T03:09:14;13.20;;;6.82;;
63046;SDS011;62025;39.238;9.126;2022-11-12T03:11:59;15.02;;;6.97;;
63046;SDS011;62025;39.238;9.126;2022-11-12T03:14:43;11.27;;;7.10;;
63046;SDS011;62025;39.238;9.126;2022-11-12T03:17:27;13.20;;;7.45;;
63046;SDS011;62025;39.238;9.126;2022-11-12T03:20:12;17.10;;;7.45;;
63046;SDS011;62025;39.238;9.126;2022-11-12T03:23:01;15.35;;;7.93;;
63046;SDS011;62025;39.238;9.126;2022-11-12T03:25:54;12.35;;;7.10;;
63046;SDS011;62025;39.238;9.126;2022-11-12T03:28:38;9.65;;;7.05;;
63046;SDS011;62025;39.238;9.126;2022-11-12T03:31:23;10.85;;;7.10;;
63046;SDS011;62025;39.238;9.126;2022-11-12T03:34:07;13.27;;;7.25;;
63046;SDS011;62025;39.238;9.126;2022-11-12T03:36:53;11.68;;;6.88;;
63046;SDS011;62025;39.238;9.126;2022-11-12T03:39:38;10.73;;;6.78;;
63046;SDS011;62025;39.238;9.126;2022-11-12T03:42:23;12.90;;;7.72;;
63046;SDS011;62025;39.238;9.126;2022-11-12T03:45:07;11.63;;;7.07;;
63046;SDS011;62025;39.238;9.126;2022-11-12T03:47:53;15.30;;;8.13;;
63046;SDS011;62025;39.238;9.126;2022-11-12T03:50:40;12.33;;;7.30;;
63046;SDS011;62025;39.238;9.126;2022-11-12T03:53:24;15.27;;;7.22;;
63046;SDS011;62025;39.238;9.126;2022-11-12T03:56:09;8.73;;;7.18;;
63046;SDS011;62025;39.238;9.126;2022-11-12T03:58:54;13.25;;;7.25;;
63046;SDS011;62025;39.238;9.126;2022-11-12T04:01:38;10.45;;;6.85;;
63046;SDS011;62025;39.238;9.126;2022-11-12T04:04:23;10.93;;;7.22;;
63046;SDS011;62025;39.238;9.126;2022-11-12T04:07:27;10.30;;;6.97;;
63046;SDS011;62025;39.238;9.126;2022-11-12T04:10:30;13.40;;;6.95;;
63046;SDS011;62025;39.238;9.126;2022-11-12T04:13:15;11.07;;;6.15;;
63046;SDS011;62025;39.238;9.126;2022-11-12T04:16:16;16.85;;;5.90;;
63046;SDS011;62025;39.238;9.126;2022-11-12T04:19:22;9.77;;;5.47;;
63046;SDS011;62025;39.238;9.126;2022-11-12T04:22:25;13.05;;;5.28;;
63046;SDS011;62025;39.238;9.126;2022-11-12T04:25:10;8.63;;;5.10;;
63046;SDS011;62025;39.238;9.126;2022-11-12T04:28:13;10.93;;;5.05;;
63046;SDS011;62025;39.238;9.126;2022-11-12T04:30:57;9.35;;;4.82;;
63046;SDS011;62025;39.238;9.126;2022-11-12T04:33:42;8.60;;;5.25;;
63046;SDS011;62025;39.238;9.126;2022-11-12T04:36:27;8.07;;;5.47;;
63046;SDS011;62025;39.238;9.126;2022-11-12T04:39:11;8.07;;;4.97;;
63046;SDS011;62025;39.238;9.126;2022-11-12T04:41:56;7.22;;;5.40;;
63046;SDS011;62025;39.238;9.126;2022-11-12T04:45:00;8.43;;;5.93;;
63046;SDS011;62025;39.238;9.126;2022-11-12T04:47:47;9.83;;;5.67;;
63046;SDS011;62025;39.238;9.126;2022-11-12T04:50:32;9.57;;;5.70;;
63046;SDS011;62025;39.238;9.126;2022-11-12T04:53:17;11.23;;;5.30;;
63046;SDS011;62025;39.238;9.126;2022-11-12T04:56:02;9.43;;;5.50;;
63046;SDS011;62025;39.238;9.126;2022-11-12T04:58:46;8.85;;;5.68;;
63046;SDS011;62025;39.238;9.126;2022-11-12T05:01:31;6.70;;;5.03;;
63046;SDS011;62025;39.238;9.126;2022-11-12T05:04:15;8.13;;;5.45;;
63046;SDS011;62025;39.238;9.126;2022-11-12T05:07:00;11.55;;;5.60;;
63046;SDS011;62025;39.238;9.126;2022-11-12T05:09:45;9.35;;;5.20;;
63046;SDS011;62025;39.238;9.126;2022-11-12T05:12:30;11.07;;;5.70;;
63046;SDS011;62025;39.238;9.126;2022-11-12T05:15:14;8.18;;;5.35;;
63046;SDS011;62025;39.238;9.126;2022-11-12T05:17:59;8.32;;;5.05;;
63046;SDS011;62025;39.238;9.126;2022-11-12T05:20:44;8.60;;;4.93;;
63046;SDS011;62025;39.238;9.126;2022-11-12T05:23:28;7.32;;;4.82;;
63046;SDS011;62025;39.238;9.126;2022-11-12T05:26:13;9.25;;;5.05;;
63046;SDS011;62025;39.238;9.126;2022-11-12T05:28:58;8.85;;;5.63;;
63046;SDS011;62025;39.238;9.126;2022-11-12T05:31:42;8.07;;;5.65;;
63046;SDS011;62025;39.238;9.126;2022-11-12T05:34:27;10.18;;;6.00;;
63046;SDS011;62025;39.238;9.126;2022-11-12T05:37:12;9.25;;;6.10;;
63046;SDS011;62025;39.238;9.126;2022-11-12T05:39:57;11.75;;;5.50;;
63046;SDS011;62025;39.238;9.126;2022-11-12T05:42:43;10.93;;;5.90;;
63046;SDS011;62025;39.238;9.126;2022-11-12T05:45:28;11.02;;;6.00;;
63046;SDS011;62025;39.238;9.126;2022-11-12T05:48:12;9.15;;;5.70;;
63046;SDS011;62025;39.238;9.126;2022-11-12T05:50:57;9.75;;;6.20;;
63046;SDS011;62025;39.238;9.126;2022-11-12T05:53:42;9.45;;;5.22;;
63046;SDS011;62025;39.238;9.126;2022-11-12T05:56:27;10.57;;;5.65;;
63046;SDS011;62025;39.238;9.126;2022-11-12T05:59:12;10.80;;;5.78;;
63046;SDS011;62025;39.238;9.126;2022-11-12T06:01:57;8.90;;;5.45;;
63046;SDS011;62025;39.238;9.126;2022-11-12T06:04:41;12.45;;;6.70;;
63046;SDS011;62025;39.238;9.126;2022-11-12T06:07:26;11.65;;;6.43;;
63046;SDS011;62025;39.238;9.126;2022-11-12T06:10:10;11.98;;;7.03;;
63046;SDS011;62025;39.238;9.126;2022-11-12T06:12:55;8.15;;;6.15;;
63046;SDS011;62025;39.238;9.126;2022-11-12T06:15:40;10.23;;;6.55;;
63046;SDS011;62025;39.238;9.126;2022-11-12T06:18:25;14.90;;;6.90;;
63046;SDS011;62025;39.238;9.126;2022-11-12T06:21:10;12.85;;;6.68;;
63046;SDS011;62025;39.238;9.126;2022-11-12T06:24:08;9.55;;;6.63;;
63046;SDS011;62025;39.238;9.126;2022-11-12T06:26:52;11.68;;;6.38;;
63046;SDS011;62025;39.238;9.126;2022-11-12T06:29:37;8.50;;;7.07;;
63046;SDS011;62025;39.238;9.126;2022-11-12T06:32:25;11.02;;;7.40;;
63046;SDS011;62025;39.238;9.126;2022-11-12T06:35:09;11.23;;;8.50;;
63046;SDS011;62025;39.238;9.126;2022-11-12T06:37:54;13.35;;;9.30;;
63046;SDS011;62025;39.238;9.126;2022-11-12T06:40:39;13.90;;;9.07;;
63046;SDS011;62025;39.238;9.126;2022-11-12T06:43:24;10.75;;;8.20;;
63046;SDS011;62025;39.238;9.126;2022-11-12T06:46:13;14.07;;;8.18;;
63046;SDS011;62025;39.238;9.126;2022-11-12T06:48:59;13.50;;;8.30;;
63046;SDS011;62025;39.238;9.126;2022-11-12T06:51:44;15.18;;;8.18;;
63046;SDS011;62025;39.238;9.126;2022-11-12T06:54:28;11.80;;;7.65;;
63046;SDS011;62025;39.238;9.126;2022-11-12T06:57:13;10.35;;;7.30;;
63046;SDS011;62025;39.238;9.126;2022-11-12T06:59:57;13.88;;;7.72;;
63046;SDS011;62025;39.238;9.126;2022-11-12T07:02:42;8.73;;;7.75;;
63046;SDS011;62025;39.238;9.126;2022-11-12T07:05:27;13.23;;;7.60;;
63046;SDS011;62025;39.238;9.126;2022-11-12T07:08:11;13.02;;;7.15;;
63046;SDS011;62025;39.238;9.126;2022-11-12T07:10:56;9.35;;;7.40;;
63046;SDS011;62025;39.238;9.126;2022-11-12T07:13:41;9.25;;;6.65;;
63046;SDS011;62025;39.238;9.126;2022-11-12T07:16:29;9.60;;;6.10;;
63046;SDS011;62025;39.238;9.126;2022-11-12T07:19:13;9.63;;;6.50;;
63046;SDS011;62025;39.238;9.126;2022-11-12T07:21:58;10.55;;;6.45;;
63046;SDS011;62025;39.238;9.126;2022-11-12T07:24:43;8.48;;;6.65;;
63046;SDS011;62025;39.238;9.126;2022-11-12T07:27:28;9.98;;;7.07;;
63046;SDS011;62025;39.238;9.126;2022-11-12T07:30:13;12.30;;;7.40;;
63046;SDS011;62025;39.238;9.126;2022-11-12T07:32:59;15.15;;;7.40;;
63046;SDS011;62025;39.238;9.126;2022-11-12T07:35:43;11.80;;;7.40;;
63046;SDS011;62025;39.238;9.126;2022-11-12T07:38:28;11.00;;;7.18;;
63046;SDS011;62025;39.238;9.126;2022-11-12T07:41:16;12.77;;;7.50;;
63046;SDS011;62025;39.238;9.126;2022-11-12T07:44:03;10.40;;;7.18;;
63046;SDS011;62025;39.238;9.126;2022-11-12T07:46:48;13.27;;;7.25;;
63046;SDS011;62025;39.238;9.126;2022-11-12T07:49:32;10.98;;;6.53;;
63046;SDS011;62025;39.238;9.126;2022-11-12T07:52:17;10.07;;;6.03;;
63046;SDS011;62025;39.238;9.126;2022-11-12T07:55:02;12.50;;;6.30;;
63046;SDS011;62025;39.238;9.126;2022-11-12T07:57:47;9.48;;;5.80;;
63046;SDS011;62025;39.238;9.126;2022-11-12T08:00:31;8.18;;;5.53;;
63046;SDS011;62025;39.238;9.126;2022-11-12T08:03:16;12.35;;;6.07;;
63046;SDS011;62025;39.238;9.126;2022-11-12T08:06:01;8.20;;;5.72;;
63046;SDS011;62025;39.238;9.126;2022-11-12T08:08:46;14.40;;;6.95;;
63046;SDS011;62025;39.238;9.126;2022-11-12T08:11:34;10.23;;;6.22;;
63046;SDS011;62025;39.238;9.126;2022-11-12T08:14:19;7.95;;;5.80;;
63046;SDS011;62025;39.238;9.126;2022-11-12T08:17:03;10.57;;;6.10;;
63046;SDS011;62025;39.238;9.126;2022-11-12T08:19:48;12.60;;;6.30;;
63046;SDS011;62025;39.238;9.126;2022-11-12T08:22:33;8.07;;;5.65;;
63046;SDS011;62025;39.238;9.126;2022-11-12T08:25:17;7.68;;;5.43;;
63046;SDS011;62025;39.238;9.126;2022-11-12T08:28:02;12.23;;;5.63;;
63046;SDS011;62025;39.238;9.126;2022-11-12T08:30:46;12.18;;;5.97;;
63046;SDS011;62025;39.238;9.126;2022-11-12T08:33:31;8.27;;;5.40;;
63046;SDS011;62025;39.238;9.126;2022-11-12T08:36:17;9.57;;;5.65;;
63046;SDS011;62025;39.238;9.126;2022-11-12T08:39:02;9.40;;;5.55;;
63046;SDS011;62025;39.238;9.126;2022-11-12T08:41:46;9.60;;;5.68;;
63046;SDS011;62025;39.238;9.126;2022-11-12T08:44:31;11.38;;;5.78;;
63046;SDS011;62025;39.238;9.126;2022-11-12T08:47:15;8.82;;;5.50;;
63046;SDS011;62025;39.238;9.126;2022-11-12T08:50:00;8.27;;;5.38;;
63046;SDS011;62025;39.238;9.126;2022-11-12T08:52:44;9.07;;;5.32;;
63046;SDS011;62025;39.238;9.126;2022-11-12T08:55:29;11.38;;;6.00;;
63046;SDS011;62025;39.238;9.126;2022-11-12T08:58:18;8.80;;;5.20;;
63046;SDS011;62025;39.238;9.126;2022-11-12T09:01:03;10.18;;;4.80;;
63046;SDS011;62025;39.238;9.126;2022-11-12T09:03:50;11.38;;;5.30;;
63046;SDS011;62025;39.238;9.126;2022-11-12T09:06:35;10.27;;;7.13;;
63046;SDS011;62025;39.238;9.126;2022-11-12T09:09:19;11.05;;;6.13;;
63046;SDS011;62025;39.238;9.126;2022-11-12T09:12:04;10.05;;;5.40;;
63046;SDS011;62025;39.238;9.126;2022-11-12T09:14:49;7.72;;;5.13;;
63046;SDS011;62025;39.238;9.126;2022-11-12T09:17:34;16.10;;;5.10;;
63046;SDS011;62025;39.238;9.126;2022-11-12T09:20:18;7.95;;;4.68;;
63046;SDS011;62025;39.238;9.126;2022-11-12T09:23:07;10.52;;;5.10;;
63046;SDS011;62025;39.238;9.126;2022-11-12T09:26:00;10.13;;;5.15;;
63046;SDS011;62025;39.238;9.126;2022-11-12T09:28:45;10.27;;;5.05;;
63046;SDS011;62025;39.238;9.126;2022-11-12T09:31:30;10.05;;;5.00;;
63046;SDS011;62025;39.238;9.126;2022-11-12T09:34:15;6.68;;;4.50;;
63046;SDS011;62025;39.238;9.126;2022-11-12T09:36:59;7.13;;;4.65;;
63046;SDS011;62025;39.238;9.126;2022-11-12T09:39:44;9.43;;;5.25;;
63046;SDS011;62025;39.238;9.126;2022-11-12T09:42:28;7.70;;;5.70;;
63046;SDS011;62025;39.238;9.126;2022-11-12T09:45:24;8.95;;;6.20;;
63046;SDS011;62025;39.238;9.126;2022-11-12T09:48:14;9.48;;;5.25;;
63046;SDS011;62025;39.238;9.126;2022-11-12T09:51:11;7.43;;;5.20;;
63046;SDS011;62025;39.238;9.126;2022-11-12T09:57:12;9.27;;;5.50;;
63046;SDS011;62025;39.238;9.126;2022-11-12T09:59:57;9.80;;;5.30;;
63046;SDS011;62025;39.238;9.126;2022-11-12T10:02:43;9.95;;;5.80;;
63046;SDS011;62025;39.238;9.126;2022-11-12T10:05:52;8.90;;;6.20;;
63046;SDS011;62025;39.238;9.126;2022-11-12T10:09:15;8.32;;;5.40;;
63046;SDS011;62025;39.238;9.126;2022-11-12T10:12:20;9.27;;;5.22;;
63046;SDS011;62025;39.238;9.126;2022-11-12T10:15:42;12.48;;;6.55;;
63046;SDS011;62025;39.238;9.126;2022-11-12T10:26:08;9.63;;;6.13;;
63046;SDS011;62025;39.238;9.126;2022-11-12T10:29:02;11.98;;;5.93;;
63046;SDS011;62025;39.238;9.126;2022-11-12T10:31:53;9.25;;;5.25;;
63046;SDS011;62025;39.238;9.126;2022-11-12T10:34:37;9.13;;;5.20;;
63046;SDS011;62025;39.238;9.126;2022-11-12T10:40:30;9.10;;;5.10;;
63046;SDS011;62025;39.238;9.126;2022-11-12T10:46:18;13.25;;;6.38;;
63046;SDS011;62025;39.238;9.126;2022-11-12T10:52:03;8.55;;;4.70;;
63046;SDS011;62025;39.238;9.126;2022-11-12T10:54:47;10.68;;;5.10;;
63046;SDS011;62025;39.238;9.126;2022-11-12T10:57:32;14.10;;;5.10;;
63046;SDS011;62025;39.238;9.126;2022-11-12T11:00:18;7.85;;;4.78;;
63046;SDS011;62025;39.238;9.126;2022-11-12T11:03:43;8.80;;;4.70;;
63046;SDS011;62025;39.238;9.126;2022-11-12T11:06:20;10.30;;;4.93;;
63046;SDS011;62025;39.238;9.126;2022-11-12T11:09:13;10.40;;;4.75;;
63046;SDS011;62025;39.238;9.126;2022-11-12T11:12:00;8.30;;;4.13;;
63046;SDS011;62025;39.238;9.126;2022-11-12T11:14:45;9.43;;;5.15;;
63046;SDS011;62025;39.238;9.126;2022-11-12T11:17:30;8.00;;;4.90;;
63046;SDS011;62025;39.238;9.126;2022-11-12T11:20:18;11.20;;;5.07;;
63046;SDS011;62025;39.238;9.126;2022-11-12T11:30:18;7.07;;;4.40;;
63046;SDS011;62025;39.238;9.126;2022-11-12T11:33:13;10.30;;;4.75;;
63046;SDS011;62025;39.238;9.126;2022-11-12T11:36:26;9.23;;;5.10;;
63046;SDS011;62025;39.238;9.126;2022-11-12T11:46:06;8.35;;;3.95;;
63046;SDS011;62025;39.238;9.126;2022-11-12T11:55:56;7.32;;;4.22;;
63046;SDS011;62025;39.238;9.126;2022-11-12T12:05:00;8.60;;;4.30;;
63046;SDS011;62025;39.238;9.126;2022-11-12T12:08:08;6.30;;;4.35;;
63046;SDS011;62025;39.238;9.126;2022-11-12T12:20:47;11.05;;;4.03;;
63046;SDS011;62025;39.238;9.126;2022-11-12T12:24:14;9.10;;;4.20;;
63046;SDS011;62025;39.238;9.126;2022-11-12T12:27:11;11.23;;;5.15;;
63046;SDS011;62025;39.238;9.126;2022-11-12T12:30:04;9.63;;;4.03;;
63046;SDS011;62025;39.238;9.126;2022-11-12T12:33:27;9.27;;;4.32;;
63046;SDS011;62025;39.238;9.126;2022-11-12T12:36:38;8.25;;;4.07;;
63046;SDS011;62025;39.238;9.126;2022-11-12T12:39:25;6.75;;;3.63;;
63046;SDS011;62025;39.238;9.126;2022-11-12T12:42:32;8.38;;;3.25;;
63046;SDS011;62025;39.238;9.126;2022-11-12T12:48:33;6.22;;;3.85;;
63046;SDS011;62025;39.238;9.126;2022-11-12T12:51:21;7.55;;;3.40;;
63046;SDS011;62025;39.238;9.126;2022-11-12T13:00:41;6.28;;;3.35;;
63046;SDS011;62025;39.238;9.126;2022-11-12T13:09:20;7.10;;;3.25;;
63046;SDS011;62025;39.238;9.126;2022-11-12T13:12:08;6.28;;;3.30;;
63046;SDS011;62025;39.238;9.126;2022-11-12T13:15:06;7.22;;;3.00;;
63046;SDS011;62025;39.238;9.126;2022-11-12T13:17:58;6.75;;;3.60;;
63046;SDS011;62025;39.238;9.126;2022-11-12T13:20:42;6.55;;;3.45;;
63046;SDS011;62025;39.238;9.126;2022-11-12T13:23:59;7.63;;;3.85;;
63046;SDS011;62025;39.238;9.126;2022-11-12T13:26:52;8.75;;;3.40;;
63046;SDS011;62025;39.238;9.126;2022-11-12T13:29:44;8.43;;;3.20;;
63046;SDS011;62025;39.238;9.126;2022-11-12T13:35:32;6.97;;;3.22;;
63046;SDS011;62025;39.238;9.126;2022-11-12T13:38:19;9.32;;;3.58;;
63046;SDS011;62025;39.238;9.126;2022-11-12T13:41:16;7.00;;;3.30;;
63046;SDS011;62025;39.238;9.126;2022-11-12T13:44:25;5.60;;;2.90;;
63046;SDS011;62025;39.238;9.126;2022-11-12T13:47:12;8.93;;;3.33;;
63046;SDS011;62025;39.238;9.126;2022-11-12T13:50:01;9.25;;;2.88;;
63046;SDS011;62025;39.238;9.126;2022-11-12T13:52:50;6.43;;;3.03;;
63046;SDS011;62025;39.238;9.126;2022-11-12T13:55:36;7.50;;;3.20;;
63046;SDS011;62025;39.238;9.126;2022-11-12T13:58:33;5.05;;;2.80;;
63046;SDS011;62025;39.238;9.126;2022-11-12T14:01:19;7.30;;;2.75;;
63046;SDS011;62025;39.238;9.126;2022-11-12T14:04:06;5.75;;;2.80;;
63046;SDS011;62025;39.238;9.126;2022-11-12T14:07:06;4.55;;;2.97;;
63046;SDS011;62025;39.238;9.126;2022-11-12T14:23:21;4.15;;;2.63;;
63046;SDS011;62025;39.238;9.126;2022-11-12T14:26:06;5.00;;;2.88;;
63046;SDS011;62025;39.238;9.126;2022-11-12T14:28:56;6.28;;;3.05;;
63046;SDS011;62025;39.238;9.126;2022-11-12T14:31:41;8.57;;;3.38;;
63046;SDS011;62025;39.238;9.126;2022-11-12T14:34:33;4.88;;;2.78;;
63046;SDS011;62025;39.238;9.126;2022-11-12T14:37:51;3.33;;;2.53;;
63046;SDS011;62025;39.238;9.126;2022-11-12T14:40:37;7.18;;;2.60;;
63046;SDS011;62025;39.238;9.126;2022-11-12T14:43:40;3.97;;;2.70;;
63046;SDS011;62025;39.238;9.126;2022-11-12T14:52:20;6.57;;;2.90;;
63046;SDS011;62025;39.238;9.126;2022-11-12T14:55:11;6.32;;;3.30;;
63046;SDS011;62025;39.238;9.126;2022-11-12T14:58:02;6.22;;;3.20;;
63046;SDS011;62025;39.238;9.126;2022-11-12T15:00:51;4.97;;;3.03;;
63046;SDS011;62025;39.238;9.126;2022-11-12T15:03:37;6.07;;;2.90;;
63046;SDS011;62025;39.238;9.126;2022-11-12T15:06:29;4.57;;;2.65;;
63046;SDS011;62025;39.238;9.126;2022-11-12T15:09:17;5.28;;;3.22;;
63046;SDS011;62025;39.238;9.126;2022-11-12T15:12:05;4.35;;;2.70;;
63046;SDS011;62025;39.238;9.126;2022-11-12T15:18:12;4.47;;;2.72;;
63046;SDS011;62025;39.238;9.126;2022-11-12T15:24:05;5.05;;;2.90;;
63046;SDS011;62025;39.238;9.126;2022-11-12T15:26:57;4.70;;;2.60;;
63046;SDS011;62025;39.238;9.126;2022-11-12T15:29:45;4.05;;;2.47;;
63046;SDS011;62025;39.238;9.126;2022-11-12T15:32:30;3.75;;;2.50;;
63046;SDS011;62025;39.238;9.126;2022-11-12T15:38:16;5.95;;;3.13;;
63046;SDS011;62025;39.238;9.126;2022-11-12T15:41:25;4.13;;;2.50;;
63046;SDS011;62025;39.238;9.126;2022-11-12T15:44:12;7.15;;;2.67;;
63046;SDS011;62025;39.238;9.126;2022-11-12T15:46:57;6.97;;;2.45;;
63046;SDS011;62025;39.238;9.126;2022-11-12T15:49:46;3.05;;;2.50;;
63046;SDS011;62025;39.238;9.126;2022-11-12T15:52:35;8.32;;;3.25;;
63046;SDS011;62025;39.238;9.126;2022-11-12T15:55:20;3.70;;;2.35;;
63046;SDS011;62025;39.238;9.126;2022-11-12T15:58:05;7.65;;;2.40;;
63046;SDS011;62025;39.238;9.126;2022-11-12T16:00:58;3.85;;;2.30;;
63046;SDS011;62025;39.238;9.126;2022-11-12T16:03:43;3.40;;;2.45;;
63046;SDS011;62025;39.238;9.126;2022-11-12T16:06:28;5.15;;;2.50;;
63046;SDS011;62025;39.238;9.126;2022-11-12T16:09:12;7.38;;;3.40;;
63046;SDS011;62025;39.238;9.126;2022-11-12T16:11:57;6.15;;;2.80;;
63046;SDS011;62025;39.238;9.126;2022-11-12T16:14:43;4.18;;;2.67;;
63046;SDS011;62025;39.238;9.126;2022-11-12T16:17:28;4.30;;;2.60;;
63046;SDS011;62025;39.238;9.126;2022-11-12T16:23:04;4.55;;;2.30;;
63046;SDS011;62025;39.238;9.126;2022-11-12T16:25:48;4.68;;;2.40;;
63046;SDS011;62025;39.238;9.126;2022-11-12T16:28:33;2.92;;;2.42;;
63046;SDS011;62025;39.238;9.126;2022-11-12T16:31:19;4.15;;;2.47;;
63046;SDS011;62025;39.238;9.126;2022-11-12T16:34:04;5.97;;;2.42;;
63046;SDS011;62025;39.238;9.126;2022-11-12T16:36:49;7.93;;;2.40;;
63046;SDS011;62025;39.238;9.126;2022-11-12T16:39:33;5.82;;;2.40;;
63046;SDS011;62025;39.238;9.126;2022-11-12T16:42:18;4.25;;;2.28;;
63046;SDS011;62025;39.238;9.126;2022-11-12T16:45:03;3.33;;;2.47;;
63046;SDS011;62025;39.238;9.126;2022-11-12T16:47:52;5.50;;;2.80;;
63046;SDS011;62025;39.238;9.126;2022-11-12T16:50:38;3.05;;;2.45;;
63046;SDS011;62025;39.238;9.126;2022-11-12T16:53:24;3.47;;;2.20;;
63046;SDS011;62025;39.238;9.126;2022-11-12T16:56:12;3.28;;;2.10;;
63046;SDS011;62025;39.238;9.126;2022-11-12T16:59:01;5.03;;;2.47;;
63046;SDS011;62025;39.238;9.126;2022-11-12T17:01:45;3.92;;;2.55;;
63046;SDS011;62025;39.238;9.126;2022-11-12T17:04:30;4.95;;;2.70;;
63046;SDS011;62025;39.238;9.126;2022-11-12T17:07:15;4.68;;;2.60;;
63046;SDS011;62025;39.238;9.126;2022-11-12T17:10:00;2.78;;;2.40;;
63046;SDS011;62025;39.238;9.126;2022-11-12T17:12:46;2.90;;;2.58;;
63046;SDS011;62025;39.238;9.126;2022-11-12T17:15:31;3.95;;;2.72;;
63046;SDS011;62025;39.238;9.126;2022-11-12T17:18:16;3.72;;;2.67;;
63046;SDS011;62025;39.238;9.126;2022-11-12T17:21:11;4.72;;;2.75;;
63046;SDS011;62025;39.238;9.126;2022-11-12T17:23:58;5.18;;;3.55;;
63046;SDS011;62025;39.238;9.126;2022-11-12T17:26:43;4.15;;;2.95;;
63046;SDS011;62025;39.238;9.126;2022-11-12T17:29:28;5.95;;;3.15;;
63046;SDS011;62025;39.238;9.126;2022-11-12T17:32:13;3.30;;;2.65;;
63046;SDS011;62025;39.238;9.126;2022-11-12T17:34:57;3.42;;;2.70;;
63046;SDS011;62025;39.238;9.126;2022-11-12T17:37:42;3.97;;;2.63;;
63046;SDS011;62025;39.238;9.126;2022-11-12T17:40:27;4.35;;;2.70;;
63046;SDS011;62025;39.238;9.126;2022-11-12T17:43:11;3.80;;;2.78;;
63046;SDS011;62025;39.238;9.126;2022-11-12T17:45:56;6.85;;;2.50;;
63046;SDS011;62025;39.238;9.126;2022-11-12T17:48:41;4.50;;;2.47;;
63046;SDS011;62025;39.238;9.126;2022-11-12T17:51:26;4.25;;;2.60;;
63046;SDS011;62025;39.238;9.126;2022-11-12T17:54:12;4.88;;;2.60;;
63046;SDS011;62025;39.238;9.126;2022-11-12T17:56:56;3.72;;;2.50;;
63046;SDS011;62025;39.238;9.126;2022-11-12T17:59:41;3.50;;;2.67;;
63046;SDS011;62025;39.238;9.126;2022-11-12T18:02:26;4.10;;;2.70;;
63046;SDS011;62025;39.238;9.126;2022-11-12T18:05:10;4.13;;;2.85;;
63046;SDS011;62025;39.238;9.126;2022-11-12T18:07:55;5.32;;;2.60;;
63046;SDS011;62025;39.238;9.126;2022-11-12T18:10:40;5.32;;;2.50;;
63046;SDS011;62025;39.238;9.126;2022-11-12T18:13:27;6.80;;;3.00;;
63046;SDS011;62025;39.238;9.126;2022-11-12T18:16:22;6.60;;;3.00;;
63046;SDS011;62025;39.238;9.126;2022-11-12T18:19:10;4.15;;;2.80;;
63046;SDS011;62025;39.238;9.126;2022-11-12T18:21:55;3.97;;;2.65;;
63046;SDS011;62025;39.238;9.126;2022-11-12T18:24:40;4.90;;;3.00;;
63046;SDS011;62025;39.238;9.126;2022-11-12T18:27:25;6.18;;;3.67;;
63046;SDS011;62025;39.238;9.126;2022-11-12T18:30:10;8.48;;;4.85;;
63046;SDS011;62025;39.238;9.126;2022-11-12T18:32:55;9.48;;;5.22;;